Terminal Aerodrome Forecast
Issued by NWS Sioux Falls, SD

Home | Current Version | Previous Version | Text Only | Print | Product List | Glossary On
Versions: 1 2 3 4 5 6 7 8 9 10 11 12 13 14 15 16 17 18 19 20 21 22 23 24 25 26 27 28
000
FTUS43 KFSD 041134
TAFSUX
TAF
KSUX 041134Z 0412/0512 15008KT P6SM VCTS BKN080CB
     FM041400 15010KT P6SM FEW100
     FM041700 16015G23KT P6SM SCT100
     FM050200 15010KT P6SM SCT090=

USA.gov is the U.S. government's official web portal to all federal, state and local government web resources and services.